sensor_id;sensor_type;location;lat;lon;timestamp;P1;durP1;ratioP1;P2;durP2;ratioP2
1088;SDS011;533;53.556;9.990;2022-11-15T00:00:01;40.50;;;25.50;;
1088;SDS011;533;53.556;9.990;2022-11-15T00:02:53;41.03;;;25.20;;
1088;SDS011;533;53.556;9.990;2022-11-15T00:05:44;36.43;;;23.20;;
1088;SDS011;533;53.556;9.990;2022-11-15T00:08:35;33.90;;;21.97;;
1088;SDS011;533;53.556;9.990;2022-11-15T00:11:26;39.13;;;24.57;;
1088;SDS011;533;53.556;9.990;2022-11-15T00:14:16;39.43;;;24.43;;
1088;SDS011;533;53.556;9.990;2022-11-15T00:17:07;40.87;;;24.90;;
1088;SDS011;533;53.556;9.990;2022-11-15T00:19:57;42.40;;;23.83;;
1088;SDS011;533;53.556;9.990;2022-11-15T00:22:48;36.40;;;23.53;;
1088;SDS011;533;53.556;9.990;2022-11-15T00:25:38;37.50;;;23.40;;
1088;SDS011;533;53.556;9.990;2022-11-15T00:28:29;40.43;;;24.27;;
1088;SDS011;533;53.556;9.990;2022-11-15T00:31:19;34.83;;;22.57;;
1088;SDS011;533;53.556;9.990;2022-11-15T00:34:10;38.53;;;24.07;;
1088;SDS011;533;53.556;9.990;2022-11-15T00:37:00;40.60;;;23.87;;
1088;SDS011;533;53.556;9.990;2022-11-15T00:39:51;39.10;;;24.67;;
1088;SDS011;533;53.556;9.990;2022-11-15T00:42:42;42.40;;;24.50;;
1088;SDS011;533;53.556;9.990;2022-11-15T00:45:32;39.67;;;24.90;;
1088;SDS011;533;53.556;9.990;2022-11-15T00:48:23;38.13;;;24.47;;
1088;SDS011;533;53.556;9.990;2022-11-15T00:51:14;43.40;;;26.83;;
1088;SDS011;533;53.556;9.990;2022-11-15T00:54:04;38.20;;;24.83;;
1088;SDS011;533;53.556;9.990;2022-11-15T00:56:55;37.20;;;26.00;;
1088;SDS011;533;53.556;9.990;2022-11-15T00:59:45;46.40;;;25.30;;
1088;SDS011;533;53.556;9.990;2022-11-15T01:02:35;43.03;;;24.63;;
1088;SDS011;533;53.556;9.990;2022-11-15T01:05:26;43.17;;;27.30;;
1088;SDS011;533;53.556;9.990;2022-11-15T01:08:18;34.93;;;23.60;;
1088;SDS011;533;53.556;9.990;2022-11-15T01:11:10;43.30;;;25.57;;
1088;SDS011;533;53.556;9.990;2022-11-15T01:14:01;44.23;;;26.93;;
1088;SDS011;533;53.556;9.990;2022-11-15T01:16:52;37.60;;;24.83;;
1088;SDS011;533;53.556;9.990;2022-11-15T01:19:43;43.67;;;25.77;;
1088;SDS011;533;53.556;9.990;2022-11-15T01:22:33;41.33;;;26.13;;
1088;SDS011;533;53.556;9.990;2022-11-15T01:25:24;38.87;;;25.40;;
1088;SDS011;533;53.556;9.990;2022-11-15T01:28:16;39.87;;;24.30;;
1088;SDS011;533;53.556;9.990;2022-11-15T01:31:17;41.00;;;25.10;;
1088;SDS011;533;53.556;9.990;2022-11-15T01:34:09;38.93;;;26.00;;
1088;SDS011;533;53.556;9.990;2022-11-15T01:36:59;42.33;;;25.10;;
1088;SDS011;533;53.556;9.990;2022-11-15T01:39:49;36.27;;;23.13;;
1088;SDS011;533;53.556;9.990;2022-11-15T01:42:40;42.73;;;24.70;;
1088;SDS011;533;53.556;9.990;2022-11-15T01:45:30;37.50;;;24.87;;
1088;SDS011;533;53.556;9.990;2022-11-15T01:48:21;40.00;;;24.30;;
1088;SDS011;533;53.556;9.990;2022-11-15T01:51:12;42.83;;;22.57;;
1088;SDS011;533;53.556;9.990;2022-11-15T01:54:05;33.23;;;23.27;;
1088;SDS011;533;53.556;9.990;2022-11-15T01:57:02;42.30;;;26.00;;
1088;SDS011;533;53.556;9.990;2022-11-15T01:59:55;45.70;;;24.60;;
1088;SDS011;533;53.556;9.990;2022-11-15T02:02:46;39.13;;;24.13;;
1088;SDS011;533;53.556;9.990;2022-11-15T02:05:37;40.93;;;26.23;;
1088;SDS011;533;53.556;9.990;2022-11-15T02:08:27;39.57;;;24.67;;
1088;SDS011;533;53.556;9.990;2022-11-15T02:11:18;36.27;;;21.57;;
1088;SDS011;533;53.556;9.990;2022-11-15T02:14:08;36.77;;;23.57;;
1088;SDS011;533;53.556;9.990;2022-11-15T02:17:07;45.20;;;25.17;;
1088;SDS011;533;53.556;9.990;2022-11-15T02:32:35;34.90;;;22.87;;
1088;SDS011;533;53.556;9.990;2022-11-15T02:35:51;37.13;;;23.30;;
1088;SDS011;533;53.556;9.990;2022-11-15T02:38:54;37.83;;;21.53;;
1088;SDS011;533;53.556;9.990;2022-11-15T02:42:52;37.90;;;22.90;;
1088;SDS011;533;53.556;9.990;2022-11-15T02:45:35;42.60;;;25.73;;
1088;SDS011;533;53.556;9.990;2022-11-15T02:48:27;39.43;;;23.57;;
1088;SDS011;533;53.556;9.990;2022-11-15T02:51:18;37.07;;;23.63;;
1088;SDS011;533;53.556;9.990;2022-11-15T02:54:15;38.73;;;23.07;;
1088;SDS011;533;53.556;9.990;2022-11-15T02:57:14;35.73;;;22.80;;
1088;SDS011;533;53.556;9.990;2022-11-15T03:00:08;35.50;;;23.80;;
1088;SDS011;533;53.556;9.990;2022-11-15T03:09:03;37.80;;;23.67;;
1088;SDS011;533;53.556;9.990;2022-11-15T03:12:00;33.30;;;22.80;;
1088;SDS011;533;53.556;9.990;2022-11-15T03:17:55;31.20;;;21.30;;
1088;SDS011;533;53.556;9.990;2022-11-15T03:20:50;31.37;;;20.73;;
1088;SDS011;533;53.556;9.990;2022-11-15T03:23:41;33.50;;;20.97;;
1088;SDS011;533;53.556;9.990;2022-11-15T03:26:31;32.40;;;22.93;;
1088;SDS011;533;53.556;9.990;2022-11-15T03:29:24;33.37;;;19.93;;
1088;SDS011;533;53.556;9.990;2022-11-15T03:32:19;31.87;;;19.30;;
1088;SDS011;533;53.556;9.990;2022-11-15T03:35:20;32.03;;;20.30;;
1088;SDS011;533;53.556;9.990;2022-11-15T03:38:16;33.97;;;20.70;;
1088;SDS011;533;53.556;9.990;2022-11-15T03:41:15;33.93;;;20.77;;
1088;SDS011;533;53.556;9.990;2022-11-15T03:44:21;34.37;;;21.70;;
1088;SDS011;533;53.556;9.990;2022-11-15T03:47:27;30.63;;;19.13;;
1088;SDS011;533;53.556;9.990;2022-11-15T03:50:19;34.13;;;21.20;;
1088;SDS011;533;53.556;9.990;2022-11-15T03:53:11;30.50;;;18.97;;
1088;SDS011;533;53.556;9.990;2022-11-15T03:56:02;29.47;;;21.30;;
1088;SDS011;533;53.556;9.990;2022-11-15T03:58:53;30.87;;;20.13;;
1088;SDS011;533;53.556;9.990;2022-11-15T04:01:43;31.23;;;18.90;;
1088;SDS011;533;53.556;9.990;2022-11-15T04:04:34;27.57;;;18.73;;
1088;SDS011;533;53.556;9.990;2022-11-15T04:07:24;34.70;;;21.37;;
1088;SDS011;533;53.556;9.990;2022-11-15T04:10:16;30.20;;;20.17;;
1088;SDS011;533;53.556;9.990;2022-11-15T04:13:06;32.23;;;19.10;;
1088;SDS011;533;53.556;9.990;2022-11-15T04:15:57;33.00;;;20.33;;
1088;SDS011;533;53.556;9.990;2022-11-15T04:18:48;29.40;;;18.83;;
1088;SDS011;533;53.556;9.990;2022-11-15T04:21:58;29.00;;;19.67;;
1088;SDS011;533;53.556;9.990;2022-11-15T04:25:07;30.90;;;19.05;;
1088;SDS011;533;53.556;9.990;2022-11-15T04:27:58;31.33;;;19.70;;
1088;SDS011;533;53.556;9.990;2022-11-15T04:30:49;27.20;;;18.40;;
1088;SDS011;533;53.556;9.990;2022-11-15T04:33:39;25.43;;;17.90;;
1088;SDS011;533;53.556;9.990;2022-11-15T04:36:30;26.33;;;17.97;;
1088;SDS011;533;53.556;9.990;2022-11-15T04:39:40;34.07;;;21.10;;
1088;SDS011;533;53.556;9.990;2022-11-15T04:42:31;29.17;;;19.30;;
1088;SDS011;533;53.556;9.990;2022-11-15T04:45:21;28.03;;;18.30;;
1088;SDS011;533;53.556;9.990;2022-11-15T04:48:12;25.30;;;18.30;;
1088;SDS011;533;53.556;9.990;2022-11-15T04:51:02;28.13;;;18.30;;
1088;SDS011;533;53.556;9.990;2022-11-15T04:53:53;30.57;;;18.63;;
1088;SDS011;533;53.556;9.990;2022-11-15T04:56:43;33.53;;;20.07;;
1088;SDS011;533;53.556;9.990;2022-11-15T04:59:33;30.70;;;19.00;;
1088;SDS011;533;53.556;9.990;2022-11-15T05:02:23;29.73;;;19.10;;
1088;SDS011;533;53.556;9.990;2022-11-15T05:05:34;30.03;;;19.53;;
1088;SDS011;533;53.556;9.990;2022-11-15T05:08:25;29.40;;;18.33;;
1088;SDS011;533;53.556;9.990;2022-11-15T05:11:16;37.03;;;19.20;;
1088;SDS011;533;53.556;9.990;2022-11-15T05:14:06;28.20;;;18.20;;
1088;SDS011;533;53.556;9.990;2022-11-15T05:16:56;32.47;;;17.67;;
1088;SDS011;533;53.556;9.990;2022-11-15T05:19:47;25.67;;;17.33;;
1088;SDS011;533;53.556;9.990;2022-11-15T05:22:38;26.47;;;17.30;;
1088;SDS011;533;53.556;9.990;2022-11-15T05:25:29;29.13;;;18.83;;
1088;SDS011;533;53.556;9.990;2022-11-15T05:28:19;32.83;;;16.83;;
1088;SDS011;533;53.556;9.990;2022-11-15T05:31:11;29.60;;;18.60;;
1088;SDS011;533;53.556;9.990;2022-11-15T05:34:05;27.97;;;18.27;;
1088;SDS011;533;53.556;9.990;2022-11-15T05:36:56;33.77;;;18.90;;
1088;SDS011;533;53.556;9.990;2022-11-15T05:39:46;28.93;;;18.13;;
1088;SDS011;533;53.556;9.990;2022-11-15T05:42:37;29.70;;;18.07;;
1088;SDS011;533;53.556;9.990;2022-11-15T05:45:27;27.90;;;16.97;;
1088;SDS011;533;53.556;9.990;2022-11-15T05:48:18;29.00;;;17.23;;
1088;SDS011;533;53.556;9.990;2022-11-15T05:51:09;28.40;;;18.63;;
1088;SDS011;533;53.556;9.990;2022-11-15T05:53:59;28.40;;;19.10;;
1088;SDS011;533;53.556;9.990;2022-11-15T05:56:50;31.20;;;18.67;;
1088;SDS011;533;53.556;9.990;2022-11-15T05:59:41;27.50;;;17.03;;
1088;SDS011;533;53.556;9.990;2022-11-15T06:02:34;28.40;;;17.60;;
1088;SDS011;533;53.556;9.990;2022-11-15T06:05:25;27.33;;;17.83;;
1088;SDS011;533;53.556;9.990;2022-11-15T06:08:15;32.07;;;18.43;;
1088;SDS011;533;53.556;9.990;2022-11-15T06:11:07;29.83;;;18.27;;
1088;SDS011;533;53.556;9.990;2022-11-15T06:13:58;32.00;;;17.80;;
1088;SDS011;533;53.556;9.990;2022-11-15T06:16:48;27.97;;;18.03;;
1088;SDS011;533;53.556;9.990;2022-11-15T06:19:39;28.00;;;18.53;;
1088;SDS011;533;53.556;9.990;2022-11-15T06:22:29;26.97;;;17.07;;
1088;SDS011;533;53.556;9.990;2022-11-15T06:25:20;27.27;;;17.27;;
1088;SDS011;533;53.556;9.990;2022-11-15T06:28:10;25.40;;;17.40;;
1088;SDS011;533;53.556;9.990;2022-11-15T06:31:08;29.97;;;18.80;;
1088;SDS011;533;53.556;9.990;2022-11-15T06:33:59;23.67;;;17.10;;
1088;SDS011;533;53.556;9.990;2022-11-15T06:36:49;22.83;;;16.43;;
1088;SDS011;533;53.556;9.990;2022-11-15T06:39:39;26.70;;;17.00;;
1088;SDS011;533;53.556;9.990;2022-11-15T06:42:29;30.23;;;17.23;;
1088;SDS011;533;53.556;9.990;2022-11-15T06:45:20;23.73;;;16.50;;
1088;SDS011;533;53.556;9.990;2022-11-15T06:48:10;26.50;;;17.87;;
1088;SDS011;533;53.556;9.990;2022-11-15T06:51:01;26.77;;;17.17;;
1088;SDS011;533;53.556;9.990;2022-11-15T06:53:53;28.33;;;15.93;;
1088;SDS011;533;53.556;9.990;2022-11-15T06:56:43;28.27;;;16.23;;
1088;SDS011;533;53.556;9.990;2022-11-15T06:59:34;30.93;;;20.10;;
1088;SDS011;533;53.556;9.990;2022-11-15T07:02:30;26.67;;;19.30;;
1088;SDS011;533;53.556;9.990;2022-11-15T07:05:20;31.10;;;19.17;;
1088;SDS011;533;53.556;9.990;2022-11-15T07:08:11;28.27;;;18.10;;
1088;SDS011;533;53.556;9.990;2022-11-15T07:11:03;23.10;;;16.40;;
1088;SDS011;533;53.556;9.990;2022-11-15T07:13:55;26.27;;;18.50;;
1088;SDS011;533;53.556;9.990;2022-11-15T07:16:45;30.60;;;18.47;;
1088;SDS011;533;53.556;9.990;2022-11-15T07:19:36;29.27;;;18.67;;
1088;SDS011;533;53.556;9.990;2022-11-15T07:22:26;32.33;;;19.30;;
1088;SDS011;533;53.556;9.990;2022-11-15T07:25:17;28.90;;;18.73;;
1088;SDS011;533;53.556;9.990;2022-11-15T07:28:07;40.20;;;20.70;;
1088;SDS011;533;53.556;9.990;2022-11-15T07:31:01;28.67;;;18.40;;
1088;SDS011;533;53.556;9.990;2022-11-15T07:33:56;28.60;;;18.43;;
1088;SDS011;533;53.556;9.990;2022-11-15T07:36:46;27.70;;;18.57;;
1088;SDS011;533;53.556;9.990;2022-11-15T07:39:37;26.87;;;16.70;;
1088;SDS011;533;53.556;9.990;2022-11-15T07:42:30;31.60;;;18.57;;
1088;SDS011;533;53.556;9.990;2022-11-15T07:45:41;27.70;;;18.70;;
1088;SDS011;533;53.556;9.990;2022-11-15T07:48:35;26.90;;;18.50;;
1088;SDS011;533;53.556;9.990;2022-11-15T07:51:33;28.53;;;18.27;;
1088;SDS011;533;53.556;9.990;2022-11-15T07:54:24;25.33;;;16.53;;
1088;SDS011;533;53.556;9.990;2022-11-15T07:57:15;27.23;;;17.97;;
1088;SDS011;533;53.556;9.990;2022-11-15T08:00:08;25.13;;;18.50;;
1088;SDS011;533;53.556;9.990;2022-11-15T08:03:07;25.97;;;17.70;;
1088;SDS011;533;53.556;9.990;2022-11-15T08:05:59;24.40;;;17.43;;
1088;SDS011;533;53.556;9.990;2022-11-15T08:08:49;30.20;;;17.70;;
1088;SDS011;533;53.556;9.990;2022-11-15T08:11:40;24.97;;;17.07;;
1088;SDS011;533;53.556;9.990;2022-11-15T08:14:30;24.93;;;17.13;;
1088;SDS011;533;53.556;9.990;2022-11-15T08:17:22;24.30;;;17.00;;
1088;SDS011;533;53.556;9.990;2022-11-15T08:20:13;24.37;;;17.63;;
1088;SDS011;533;53.556;9.990;2022-11-15T08:23:05;28.30;;;17.83;;
1088;SDS011;533;53.556;9.990;2022-11-15T08:25:59;24.83;;;16.90;;
1088;SDS011;533;53.556;9.990;2022-11-15T08:28:53;23.83;;;16.43;;
1088;SDS011;533;53.556;9.990;2022-11-15T08:31:44;25.20;;;15.93;;
1088;SDS011;533;53.556;9.990;2022-11-15T08:34:36;25.60;;;16.47;;
1088;SDS011;533;53.556;9.990;2022-11-15T08:37:27;23.53;;;17.80;;
1088;SDS011;533;53.556;9.990;2022-11-15T08:40:18;27.30;;;17.57;;
1088;SDS011;533;53.556;9.990;2022-11-15T08:43:09;27.27;;;17.90;;
1088;SDS011;533;53.556;9.990;2022-11-15T08:46:00;29.33;;;18.23;;
1088;SDS011;533;53.556;9.990;2022-11-15T08:48:51;25.93;;;17.47;;
1088;SDS011;533;53.556;9.990;2022-11-15T08:51:41;26.80;;;16.70;;
1088;SDS011;533;53.556;9.990;2022-11-15T08:54:32;23.07;;;16.77;;
1088;SDS011;533;53.556;9.990;2022-11-15T08:57:22;25.70;;;17.70;;
1088;SDS011;533;53.556;9.990;2022-11-15T09:00:14;28.53;;;16.73;;
1088;SDS011;533;53.556;9.990;2022-11-15T09:03:05;29.70;;;18.07;;
1088;SDS011;533;53.556;9.990;2022-11-15T09:05:56;24.60;;;17.27;;
1088;SDS011;533;53.556;9.990;2022-11-15T09:08:48;25.87;;;17.80;;
1088;SDS011;533;53.556;9.990;2022-11-15T09:11:38;23.53;;;15.90;;
1088;SDS011;533;53.556;9.990;2022-11-15T09:14:29;24.73;;;16.20;;
1088;SDS011;533;53.556;9.990;2022-11-15T09:17:20;26.77;;;17.07;;
1088;SDS011;533;53.556;9.990;2022-11-15T09:20:14;25.60;;;17.17;;
1088;SDS011;533;53.556;9.990;2022-11-15T09:23:05;27.90;;;18.13;;
1088;SDS011;533;53.556;9.990;2022-11-15T09:26:00;27.30;;;18.23;;
1088;SDS011;533;53.556;9.990;2022-11-15T09:28:51;28.57;;;16.47;;
1088;SDS011;533;53.556;9.990;2022-11-15T09:31:42;23.57;;;16.70;;
1088;SDS011;533;53.556;9.990;2022-11-15T09:34:33;24.07;;;17.20;;
1088;SDS011;533;53.556;9.990;2022-11-15T09:37:23;21.43;;;16.20;;
1088;SDS011;533;53.556;9.990;2022-11-15T09:40:14;23.17;;;16.03;;
1088;SDS011;533;53.556;9.990;2022-11-15T09:49:21;28.37;;;18.30;;
1088;SDS011;533;53.556;9.990;2022-11-15T09:52:27;28.40;;;17.23;;
1088;SDS011;533;53.556;9.990;2022-11-15T09:54:59;25.77;;;17.80;;
1088;SDS011;533;53.556;9.990;2022-11-15T09:57:33;24.70;;;17.13;;
1088;SDS011;533;53.556;9.990;2022-11-15T10:05:59;27.37;;;18.63;;
1088;SDS011;533;53.556;9.990;2022-11-15T10:11:07;23.43;;;16.40;;
1088;SDS011;533;53.556;9.990;2022-11-15T10:19:56;28.20;;;16.77;;
1088;SDS011;533;53.556;9.990;2022-11-15T10:22:49;22.40;;;16.00;;
1088;SDS011;533;53.556;9.990;2022-11-15T10:30:40;21.10;;;16.33;;
1088;SDS011;533;53.556;9.990;2022-11-15T10:33:26;23.30;;;15.97;;
1088;SDS011;533;53.556;9.990;2022-11-15T10:44:11;22.90;;;16.40;;
1088;SDS011;533;53.556;9.990;2022-11-15T10:49:27;23.80;;;15.83;;
1088;SDS011;533;53.556;9.990;2022-11-15T10:54:50;26.60;;;16.53;;
1088;SDS011;533;53.556;9.990;2022-11-15T10:57:26;26.40;;;16.83;;
1088;SDS011;533;53.556;9.990;2022-11-15T11:00:04;23.33;;;15.50;;
1088;SDS011;533;53.556;9.990;2022-11-15T11:02:59;26.27;;;16.97;;
1088;SDS011;533;53.556;9.990;2022-11-15T11:10:55;23.50;;;15.50;;
1088;SDS011;533;53.556;9.990;2022-11-15T11:13:38;23.30;;;15.80;;
1088;SDS011;533;53.556;9.990;2022-11-15T11:21:39;19.53;;;15.00;;
1088;SDS011;533;53.556;9.990;2022-11-15T11:24:16;28.83;;;15.80;;
1088;SDS011;533;53.556;9.990;2022-11-15T11:35:22;17.70;;;14.00;;
1088;SDS011;533;53.556;9.990;2022-11-15T11:44:06;22.53;;;16.53;;
1088;SDS011;533;53.556;9.990;2022-11-15T11:46:55;31.33;;;16.27;;
1088;SDS011;533;53.556;9.990;2022-11-15T11:52:31;19.63;;;14.50;;
1088;SDS011;533;53.556;9.990;2022-11-15T12:00:40;25.90;;;16.93;;
1088;SDS011;533;53.556;9.990;2022-11-15T12:06:08;26.33;;;15.80;;
1088;SDS011;533;53.556;9.990;2022-11-15T12:17:00;19.67;;;14.07;;
1088;SDS011;533;53.556;9.990;2022-11-15T12:19:33;20.60;;;14.57;;
1088;SDS011;533;53.556;9.990;2022-11-15T12:22:10;21.40;;;14.77;;
1088;SDS011;533;53.556;9.990;2022-11-15T12:25:00;17.10;;;13.43;;
1088;SDS011;533;53.556;9.990;2022-11-15T12:27:48;23.87;;;14.10;;
1088;SDS011;533;53.556;9.990;2022-11-15T12:30:25;18.53;;;13.77;;
1088;SDS011;533;53.556;9.990;2022-11-15T12:33:03;21.97;;;14.47;;
1088;SDS011;533;53.556;9.990;2022-11-15T12:35:39;20.17;;;12.67;;
1088;SDS011;533;53.556;9.990;2022-11-15T12:38:13;19.20;;;13.87;;
1088;SDS011;533;53.556;9.990;2022-11-15T12:41:24;18.47;;;14.17;;
1088;SDS011;533;53.556;9.990;2022-11-15T12:44:03;17.53;;;13.30;;
1088;SDS011;533;53.556;9.990;2022-11-15T12:50:04;26.00;;;18.47;;
1088;SDS011;533;53.556;9.990;2022-11-15T12:52:20;18.10;;;12.60;;
1088;SDS011;533;53.556;9.990;2022-11-15T12:54:57;18.30;;;12.30;;
1088;SDS011;533;53.556;9.990;2022-11-15T12:57:35;19.03;;;13.47;;
1088;SDS011;533;53.556;9.990;2022-11-15T13:02:49;19.97;;;13.50;;
1088;SDS011;533;53.556;9.990;2022-11-15T13:05:53;24.43;;;15.13;;
1088;SDS011;533;53.556;9.990;2022-11-15T13:08:35;20.00;;;13.00;;
1088;SDS011;533;53.556;9.990;2022-11-15T13:11:41;19.73;;;13.50;;
1088;SDS011;533;53.556;9.990;2022-11-15T13:19:59;19.20;;;14.13;;
1088;SDS011;533;53.556;9.990;2022-11-15T13:28:41;18.20;;;13.53;;
1088;SDS011;533;53.556;9.990;2022-11-15T13:31:38;20.20;;;14.33;;
1088;SDS011;533;53.556;9.990;2022-11-15T13:37:28;19.53;;;14.17;;
1088;SDS011;533;53.556;9.990;2022-11-15T13:40:20;18.40;;;14.03;;
1088;SDS011;533;53.556;9.990;2022-11-15T13:43:00;25.97;;;13.97;;
1088;SDS011;533;53.556;9.990;2022-11-15T13:48:41;24.90;;;13.60;;
1088;SDS011;533;53.556;9.990;2022-11-15T13:51:23;25.10;;;16.27;;
1088;SDS011;533;53.556;9.990;2022-11-15T13:54:10;17.60;;;12.63;;
1088;SDS011;533;53.556;9.990;2022-11-15T13:56:56;17.60;;;12.70;;
1088;SDS011;533;53.556;9.990;2022-11-15T13:59:35;19.57;;;15.30;;
1088;SDS011;533;53.556;9.990;2022-11-15T14:02:19;21.87;;;14.10;;
1088;SDS011;533;53.556;9.990;2022-11-15T14:05:14;18.37;;;13.70;;
1088;SDS011;533;53.556;9.990;2022-11-15T14:07:55;19.97;;;13.67;;
1088;SDS011;533;53.556;9.990;2022-11-15T14:10:33;19.13;;;11.90;;
1088;SDS011;533;53.556;9.990;2022-11-15T14:13:30;16.77;;;12.67;;
1088;SDS011;533;53.556;9.990;2022-11-15T14:16:14;21.67;;;13.23;;
1088;SDS011;533;53.556;9.990;2022-11-15T14:18:55;17.33;;;12.30;;
1088;SDS011;533;53.556;9.990;2022-11-15T14:21:28;21.17;;;14.30;;
1088;SDS011;533;53.556;9.990;2022-11-15T14:24:16;19.53;;;13.07;;
1088;SDS011;533;53.556;9.990;2022-11-15T14:26:51;15.40;;;11.97;;
1088;SDS011;533;53.556;9.990;2022-11-15T14:29:29;17.77;;;13.60;;
1088;SDS011;533;53.556;9.990;2022-11-15T14:32:27;18.70;;;12.70;;
1088;SDS011;533;53.556;9.990;2022-11-15T14:34:59;18.70;;;12.60;;
1088;SDS011;533;53.556;9.990;2022-11-15T14:37:33;16.73;;;12.50;;
1088;SDS011;533;53.556;9.990;2022-11-15T14:40:11;21.43;;;12.73;;
1088;SDS011;533;53.556;9.990;2022-11-15T14:42:49;15.73;;;12.40;;
1088;SDS011;533;53.556;9.990;2022-11-15T14:45:27;16.53;;;12.77;;
1088;SDS011;533;53.556;9.990;2022-11-15T14:47:59;20.30;;;12.03;;
1088;SDS011;533;53.556;9.990;2022-11-15T14:50:32;14.03;;;10.80;;
1088;SDS011;533;53.556;9.990;2022-11-15T14:53:05;16.60;;;11.73;;
1088;SDS011;533;53.556;9.990;2022-11-15T14:55:42;18.30;;;11.90;;
1088;SDS011;533;53.556;9.990;2022-11-15T14:58:14;18.50;;;12.57;;
1088;SDS011;533;53.556;9.990;2022-11-15T15:00:46;21.43;;;14.57;;
1088;SDS011;533;53.556;9.990;2022-11-15T15:03:19;19.90;;;13.40;;
1088;SDS011;533;53.556;9.990;2022-11-15T15:05:51;19.93;;;12.93;;
1088;SDS011;533;53.556;9.990;2022-11-15T15:08:23;18.87;;;13.07;;
1088;SDS011;533;53.556;9.990;2022-11-15T15:10:55;18.83;;;12.67;;
1088;SDS011;533;53.556;9.990;2022-11-15T15:13:27;19.27;;;14.83;;
1088;SDS011;533;53.556;9.990;2022-11-15T15:16:01;20.40;;;12.17;;
1088;SDS011;533;53.556;9.990;2022-11-15T15:18:33;17.30;;;12.80;;
1088;SDS011;533;53.556;9.990;2022-11-15T15:21:13;16.50;;;12.33;;
1088;SDS011;533;53.556;9.990;2022-11-15T15:23:52;15.17;;;12.60;;
1088;SDS011;533;53.556;9.990;2022-11-15T15:26:28;20.80;;;14.47;;
1088;SDS011;533;53.556;9.990;2022-11-15T15:29:00;16.43;;;13.30;;
1088;SDS011;533;53.556;9.990;2022-11-15T15:31:32;19.80;;;12.20;;
1088;SDS011;533;53.556;9.990;2022-11-15T15:34:05;26.00;;;14.43;;
1088;SDS011;533;53.556;9.990;2022-11-15T15:36:39;17.77;;;12.93;;
1088;SDS011;533;53.556;9.990;2022-11-15T15:39:11;18.23;;;13.57;;
1088;SDS011;533;53.556;9.990;2022-11-15T15:41:43;17.20;;;13.50;;
1088;SDS011;533;53.556;9.990;2022-11-15T15:44:15;21.90;;;13.40;;
1088;SDS011;533;53.556;9.990;2022-11-15T15:46:47;18.63;;;13.13;;
1088;SDS011;533;53.556;9.990;2022-11-15T15:49:19;19.60;;;13.27;;
1088;SDS011;533;53.556;9.990;2022-11-15T15:51:51;21.67;;;14.60;;
1088;SDS011;533;53.556;9.990;2022-11-15T15:54:24;19.60;;;12.43;;
1088;SDS011;533;53.556;9.990;2022-11-15T15:56:56;18.33;;;12.87;;
1088;SDS011;533;53.556;9.990;2022-11-15T15:59:28;19.80;;;14.17;;
1088;SDS011;533;53.556;9.990;2022-11-15T16:02:00;17.93;;;12.93;;
1088;SDS011;533;53.556;9.990;2022-11-15T16:04:32;23.30;;;14.07;;
1088;SDS011;533;53.556;9.990;2022-11-15T16:07:03;22.30;;;15.80;;
1088;SDS011;533;53.556;9.990;2022-11-15T16:09:35;21.50;;;12.63;;
1088;SDS011;533;53.556;9.990;2022-11-15T16:12:30;27.00;;;15.60;;
1088;SDS011;533;53.556;9.990;2022-11-15T16:15:04;21.90;;;14.77;;
1088;SDS011;533;53.556;9.990;2022-11-15T16:17:55;18.30;;;13.30;;
1088;SDS011;533;53.556;9.990;2022-11-15T16:20:47;18.93;;;14.33;;
1088;SDS011;533;53.556;9.990;2022-11-15T16:23:28;18.10;;;12.93;;
1088;SDS011;533;53.556;9.990;2022-11-15T16:26:00;23.33;;;13.60;;
1088;SDS011;533;53.556;9.990;2022-11-15T16:28:34;24.93;;;15.53;;
1088;SDS011;533;53.556;9.990;2022-11-15T16:31:10;21.30;;;15.67;;
1088;SDS011;533;53.556;9.990;2022-11-15T16:33:43;19.30;;;13.33;;
1088;SDS011;533;53.556;9.990;2022-11-15T16:36:19;21.53;;;14.03;;
1088;SDS011;533;53.556;9.990;2022-11-15T16:39:01;19.07;;;13.40;;
1088;SDS011;533;53.556;9.990;2022-11-15T16:41:37;17.07;;;12.67;;
1088;SDS011;533;53.556;9.990;2022-11-15T16:44:09;17.10;;;13.53;;
1088;SDS011;533;53.556;9.990;2022-11-15T16:46:42;18.80;;;12.60;;
1088;SDS011;533;53.556;9.990;2022-11-15T16:49:14;16.20;;;11.93;;
1088;SDS011;533;53.556;9.990;2022-11-15T16:51:47;19.10;;;13.10;;
1088;SDS011;533;53.556;9.990;2022-11-15T16:54:20;23.00;;;16.20;;
1088;SDS011;533;53.556;9.990;2022-11-15T16:56:52;20.17;;;13.03;;
1088;SDS011;533;53.556;9.990;2022-11-15T16:59:24;23.80;;;13.10;;
1088;SDS011;533;53.556;9.990;2022-11-15T17:01:56;15.93;;;12.57;;
1088;SDS011;533;53.556;9.990;2022-11-15T17:04:28;19.73;;;14.93;;
1088;SDS011;533;53.556;9.990;2022-11-15T17:07:04;17.83;;;12.47;;
1088;SDS011;533;53.556;9.990;2022-11-15T17:09:37;19.03;;;12.93;;
1088;SDS011;533;53.556;9.990;2022-11-15T17:12:09;17.17;;;12.40;;
1088;SDS011;533;53.556;9.990;2022-11-15T17:14:42;20.53;;;13.50;;
1088;SDS011;533;53.556;9.990;2022-11-15T17:17:16;15.07;;;12.20;;
1088;SDS011;533;53.556;9.990;2022-11-15T17:19:48;19.57;;;12.83;;
1088;SDS011;533;53.556;9.990;2022-11-15T17:22:20;18.33;;;12.80;;
1088;SDS011;533;53.556;9.990;2022-11-15T17:24:52;15.23;;;11.77;;
1088;SDS011;533;53.556;9.990;2022-11-15T17:27:24;21.17;;;13.80;;
1088;SDS011;533;53.556;9.990;2022-11-15T17:29:56;24.60;;;14.27;;
1088;SDS011;533;53.556;9.990;2022-11-15T17:32:28;19.87;;;14.07;;
1088;SDS011;533;53.556;9.990;2022-11-15T17:35:00;20.47;;;13.53;;
1088;SDS011;533;53.556;9.990;2022-11-15T17:37:33;23.80;;;13.80;;
1088;SDS011;533;53.556;9.990;2022-11-15T17:40:05;19.43;;;12.80;;
1088;SDS011;533;53.556;9.990;2022-11-15T17:42:41;18.67;;;14.10;;
1088;SDS011;533;53.556;9.990;2022-11-15T17:45:13;15.30;;;12.07;;
1088;SDS011;533;53.556;9.990;2022-11-15T17:47:45;23.70;;;13.93;;
1088;SDS011;533;53.556;9.990;2022-11-15T17:50:16;18.73;;;12.40;;
1088;SDS011;533;53.556;9.990;2022-11-15T17:52:48;20.03;;;13.70;;
1088;SDS011;533;53.556;9.990;2022-11-15T17:55:20;15.43;;;12.37;;
1088;SDS011;533;53.556;9.990;2022-11-15T17:57:52;21.17;;;14.10;;
1088;SDS011;533;53.556;9.990;2022-11-15T18:00:24;19.03;;;13.33;;
1088;SDS011;533;53.556;9.990;2022-11-15T18:02:56;15.43;;;12.60;;
1088;SDS011;533;53.556;9.990;2022-11-15T18:05:28;17.53;;;14.30;;
1088;SDS011;533;53.556;9.990;2022-11-15T18:08:00;16.77;;;13.33;;
1088;SDS011;533;53.556;9.990;2022-11-15T18:10:32;17.93;;;13.17;;
1088;SDS011;533;53.556;9.990;2022-11-15T18:13:04;21.40;;;14.23;;
1088;SDS011;533;53.556;9.990;2022-11-15T18:15:36;17.23;;;13.20;;
1088;SDS011;533;53.556;9.990;2022-11-15T18:18:08;17.87;;;13.50;;
1088;SDS011;533;53.556;9.990;2022-11-15T18:20:40;18.40;;;12.47;;
1088;SDS011;533;53.556;9.990;2022-11-15T18:23:12;18.30;;;13.33;;
1088;SDS011;533;53.556;9.990;2022-11-15T18:25:49;17.40;;;13.87;;
1088;SDS011;533;53.556;9.990;2022-11-15T18:28:22;21.60;;;14.00;;
1088;SDS011;533;53.556;9.990;2022-11-15T18:31:02;19.77;;;13.27;;
1088;SDS011;533;53.556;9.990;2022-11-15T18:33:35;18.70;;;12.20;;
1088;SDS011;533;53.556;9.990;2022-11-15T18:36:08;20.03;;;15.00;;
1088;SDS011;533;53.556;9.990;2022-11-15T18:38:41;16.20;;;13.00;;
1088;SDS011;533;53.556;9.990;2022-11-15T18:41:14;19.30;;;13.87;;
1088;SDS011;533;53.556;9.990;2022-11-15T18:43:50;19.53;;;14.77;;
1088;SDS011;533;53.556;9.990;2022-11-15T18:46:23;19.67;;;13.47;;
1088;SDS011;533;53.556;9.990;2022-11-15T18:48:57;18.77;;;14.27;;
1088;SDS011;533;53.556;9.990;2022-11-15T18:51:30;19.17;;;13.20;;
1088;SDS011;533;53.556;9.990;2022-11-15T18:54:02;20.57;;;12.30;;
1088;SDS011;533;53.556;9.990;2022-11-15T18:56:35;20.07;;;11.73;;
1088;SDS011;533;53.556;9.990;2022-11-15T18:59:07;16.63;;;11.57;;